Time;durP1;ratioP1;P1;durP2;ratioP2;P2;SDS_P1;SDS_P2;PMS_P1;PMS_P2;Temp;Humidity;BMP_temperature;BMP_pressure;BME280_temperature;BME280_humidity;BME280_pressure;Samples;Min_cycle;Max_cycle;Signal;HPM_P1;HPM_P2
2023/03/13 00:02:09;;;;;;;31.63;6.43;;;8.30;99.90;;;;;;5054927;28;20057;-59
2023/03/13 00:04:35;;;;;;;27.30;5.55;;;8.30;99.90;;;;;;5053016;28;20044;-58
2023/03/13 00:07:00;;;;;;;41.38;5.97;;;8.30;99.90;;;;;;5054794;28;20036;-58
2023/03/13 00:09:26;;;;;;;26.10;4.82;;;8.10;99.90;;;;;;5054200;28;20932;-58
2023/03/13 00:11:52;;;;;;;33.22;6.38;;;8.20;99.90;;;;;;5054987;28;20123;-58
2023/03/13 00:14:18;;;;;;;29.80;6.00;;;8.20;99.90;;;;;;5054039;28;20098;-58
2023/03/13 00:16:43;;;;;;;29.88;5.68;;;9.00;99.90;;;;;;5054890;28;20105;-58
2023/03/13 00:19:09;;;;;;;50.65;8.35;;;7.90;99.90;;;;;;5054456;28;20459;-58
2023/03/13 00:21:36;;;;;;;32.03;6.22;;;8.20;99.90;;;;;;5053306;28;20036;-58
2023/03/13 00:24:03;;;;;;;36.00;6.90;;;8.20;99.90;;;;;;5056359;28;20572;-58
2023/03/13 00:26:29;;;;;;;32.65;6.05;;;8.20;99.90;;;;;;5054827;28;20074;-58
2023/03/13 00:28:55;;;;;;;35.65;5.63;;;8.40;99.90;;;;;;5054211;28;20055;-58
2023/03/13 00:31:23;;;;;;;40.22;7.68;;;8.20;99.90;;;;;;5053928;28;20322;-58
2023/03/13 00:33:52;;;;;;;34.15;5.90;;;8.20;99.90;;;;;;5053847;28;20052;-58
2023/03/13 00:36:23;;;;;;;36.08;6.68;;;8.20;99.90;;;;;;5054039;28;20045;-59
2023/03/13 00:38:50;;;;;;;41.38;8.23;;;8.20;99.90;;;;;;5054357;28;20539;-58
2023/03/13 00:41:18;;;;;;;38.53;7.85;;;8.00;99.90;;;;;;5054478;28;20052;-58
2023/03/13 00:43:45;;;;;;;40.50;7.38;;;8.10;99.90;;;;;;5055061;28;20060;-58
2023/03/13 00:46:12;;;;;;;34.65;5.90;;;8.20;99.90;;;;;;5053162;28;20458;-58
2023/03/13 00:48:38;;;;;;;31.63;7.43;;;8.10;99.90;;;;;;5051915;28;20047;-59
2023/03/13 00:51:05;;;;;;;32.28;6.82;;;8.10;99.90;;;;;;5053608;28;20387;-58
2023/03/13 00:53:31;;;;;;;33.30;6.75;;;8.10;99.90;;;;;;5052798;28;21450;-58
2023/03/13 00:55:58;;;;;;;45.72;8.55;;;8.10;99.90;;;;;;5053251;28;20040;-58
2023/03/13 00:58:26;;;;;;;30.52;5.80;;;8.10;99.90;;;;;;5052611;28;20040;-58
2023/03/13 01:00:52;;;;;;;36.13;7.05;;;8.10;99.90;;;;;;5052393;28;21096;-58
2023/03/13 01:03:19;;;;;;;36.65;7.10;;;8.20;99.90;;;;;;5051716;28;20037;-57
2023/03/13 01:05:53;;;;;;;37.22;6.28;;;8.20;99.90;;;;;;5057035;28;20064;-57
2023/03/13 01:08:19;;;;;;;32.67;7.63;;;8.00;99.90;;;;;;5057328;28;20044;-58
2023/03/13 01:10:45;;;;;;;36.25;6.85;;;8.20;99.90;;;;;;5056864;28;21274;-58
2023/03/13 01:13:10;;;;;;;32.42;6.90;;;8.10;99.90;;;;;;5057569;28;20539;-58
2023/03/13 01:15:36;;;;;;;34.83;5.78;;;8.10;99.90;;;;;;5056965;28;20064;-58
2023/03/13 01:18:02;;;;;;;42.40;6.55;;;8.20;99.90;;;;;;5056263;28;20519;-59
2023/03/13 01:20:29;;;;;;;27.73;6.57;;;8.10;99.90;;;;;;5055823;28;20497;-57
2023/03/13 01:22:55;;;;;;;29.40;6.22;;;8.20;99.90;;;;;;5056942;28;20145;-58
2023/03/13 01:25:21;;;;;;;39.60;6.28;;;8.20;99.90;;;;;;5055763;28;20086;-58
2023/03/13 01:27:46;;;;;;;41.97;7.57;;;8.20;99.90;;;;;;5056758;28;20594;-58
2023/03/13 01:30:12;;;;;;;36.15;7.00;;;8.20;99.90;;;;;;5056748;28;20044;-58
2023/03/13 01:32:38;;;;;;;29.13;6.70;;;8.20;99.90;;;;;;5057513;28;20098;-58
2023/03/13 01:35:04;;;;;;;39.35;7.00;;;8.30;99.90;;;;;;5057373;28;20817;-59
2023/03/13 01:37:29;;;;;;;33.67;6.18;;;8.20;99.90;;;;;;5057435;28;20072;-58
2023/03/13 01:39:55;;;;;;;29.20;5.88;;;8.10;99.90;;;;;;5056830;28;20068;-59
2023/03/13 01:42:21;;;;;;;39.55;6.53;;;8.50;99.90;;;;;;5057859;28;20082;-59
2023/03/13 01:44:53;;;;;;;34.63;6.55;;;8.40;99.90;;;;;;5056876;28;20448;-60
2023/03/13 01:47:19;;;;;;;32.83;6.82;;;8.10;99.90;;;;;;5057051;28;20044;-58
2023/03/13 01:49:45;;;;;;;30.05;6.07;;;8.20;99.90;;;;;;5055201;28;20083;-59
2023/03/13 01:52:27;;;;;;;30.33;6.40;;;8.30;99.90;;;;;;5036379;28;21090;-59
2023/03/13 01:55:01;;;;;;;30.42;5.40;;;8.30;99.90;;;;;;5058067;28;20040;-59
2023/03/13 01:57:32;;;;;;;41.40;8.98;;;8.10;99.90;;;;;;5057845;28;20049;-59
2023/03/13 02:00:06;;;;;;;26.00;5.68;;;8.30;99.90;;;;;;5058189;28;20032;-60
2023/03/13 02:02:33;;;;;;;32.28;6.65;;;8.40;99.90;;;;;;5054517;28;20481;-58
2023/03/13 02:05:01;;;;;;;38.65;7.13;;;8.20;99.90;;;;;;5056879;28;20044;-59
2023/03/13 02:07:38;;;;;;;33.63;5.55;;;8.30;99.90;;;;;;5057741;28;20555;-60
2023/03/13 02:10:04;;;;;;;33.70;6.05;;;8.30;99.90;;;;;;5056583;28;20036;-59
2023/03/13 02:12:34;;;;;;;31.67;6.38;;;8.30;99.90;;;;;;5056115;28;20040;-59
2023/03/13 02:15:06;;;;;;;38.13;6.68;;;8.40;99.90;;;;;;5055537;28;20056;-59
2023/03/13 02:17:34;;;;;;;30.50;5.57;;;8.30;99.90;;;;;;5055598;28;20053;-59
2023/03/13 02:19:59;;;;;;;38.97;6.82;;;9.00;99.90;;;;;;5055824;28;20584;-58
2023/03/13 02:22:44;;;;;;;36.17;7.50;;;8.40;99.90;;;;;;5055805;28;20047;-58
2023/03/13 02:25:22;;;;;;;31.45;6.60;;;8.30;99.90;;;;;;5055337;28;20049;-59
2023/03/13 02:27:50;;;;;;;28.73;6.03;;;8.30;99.90;;;;;;5055122;28;20517;-58
2023/03/13 02:30:15;;;;;;;31.20;7.00;;;6.10;99.90;;;;;;5054950;28;20534;-59
2023/03/13 02:32:43;;;;;;;31.63;7.57;;;8.30;99.90;;;;;;5054894;28;20080;-59
2023/03/13 02:35:13;;;;;;;30.27;6.00;;;8.20;99.90;;;;;;5055459;28;20127;-60
2023/03/13 02:37:41;;;;;;;25.33;6.75;;;8.40;99.90;;;;;;5056052;28;20048;-59
2023/03/13 02:40:14;;;;;;;23.85;6.32;;;8.20;99.90;;;;;;5055532;28;20092;-59
2023/03/13 02:42:42;;;;;;;27.02;6.10;;;8.40;99.90;;;;;;5055681;28;20099;-57
2023/03/13 02:45:09;;;;;;;22.30;6.13;;;8.30;99.90;;;;;;5055222;28;20036;-59
2023/03/13 02:47:35;;;;;;;25.23;6.15;;;8.50;99.90;;;;;;5054413;28;20433;-59
2023/03/13 02:50:01;;;;;;;19.33;5.43;;;8.30;99.90;;;;;;5053655;28;20037;-59
2023/03/13 02:52:42;;;;;;;19.88;5.10;;;8.50;99.90;;;;;;5056318;28;20044;-59
2023/03/13 02:55:23;;;;;;;18.67;4.78;;;8.40;99.90;;;;;;5056038;28;20047;-59
2023/03/13 02:57:49;;;;;;;17.13;5.53;;;8.40;99.90;;;;;;5054761;28;20056;-59
2023/03/13 03:00:16;;;;;;;17.20;5.18;;;8.40;99.90;;;;;;5056344;28;20280;-59
2023/03/13 03:02:43;;;;;;;17.00;5.07;;;8.60;99.90;;;;;;5055566;28;20431;-59
2023/03/13 03:05:09;;;;;;;13.70;4.68;;;8.50;99.90;;;;;;5055126;28;20060;-60
2023/03/13 03:07:35;;;;;;;19.88;4.95;;;8.50;99.90;;;;;;5055617;28;20494;-59
2023/03/13 03:10:02;;;;;;;15.38;4.65;;;8.50;99.90;;;;;;5055842;28;20036;-60
2023/03/13 03:12:27;;;;;;;15.45;5.47;;;8.60;99.90;;;;;;5053620;28;20044;-59
2023/03/13 03:14:53;;;;;;;17.30;4.88;;;8.60;99.90;;;;;;5055720;28;20113;-59
2023/03/13 03:17:19;;;;;;;14.48;5.57;;;8.70;99.90;;;;;;5055010;28;20047;-59
2023/03/13 03:19:45;;;;;;;11.55;4.25;;;8.70;99.90;;;;;;5054387;28;20036;-58
2023/03/13 03:22:10;;;;;;;13.18;4.50;;;8.70;99.90;;;;;;5054730;28;20513;-60
2023/03/13 03:24:36;;;;;;;7.57;3.75;;;8.90;99.90;;;;;;5054655;28;20041;-60
2023/03/13 03:27:02;;;;;;;8.18;4.18;;;9.30;99.90;;;;;;5054206;28;20044;-58
2023/03/13 03:29:28;;;;;;;8.75;4.00;;;8.70;99.90;;;;;;5054531;28;20047;-60
2023/03/13 03:31:53;;;;;;;10.38;4.15;;;8.80;99.90;;;;;;5054481;28;20048;-59
2023/03/13 03:34:20;;;;;;;11.02;4.97;;;8.80;99.90;;;;;;5054805;28;20074;-59
2023/03/13 03:36:46;;;;;;;12.43;4.00;;;9.00;99.90;;;;;;5056070;28;20760;-59
2023/03/13 03:39:11;;;;;;;10.93;5.57;;;8.90;99.90;;;;;;5054244;28;20067;-59
2023/03/13 03:41:37;;;;;;;9.18;4.50;;;8.80;99.90;;;;;;5054030;28;20119;-59
2023/03/13 03:44:03;;;;;;;9.98;5.13;;;8.80;99.90;;;;;;5055000;28;20048;-59
2023/03/13 03:46:29;;;;;;;9.52;5.00;;;8.90;99.90;;;;;;5055488;28;20048;-59
2023/03/13 03:48:55;;;;;;;8.35;4.40;;;9.00;99.90;;;;;;5053097;28;20049;-59
2023/03/13 03:51:21;;;;;;;9.38;3.88;;;9.00;99.90;;;;;;5052120;28;20041;-58
2023/03/13 03:53:47;;;;;;;7.57;4.53;;;10.20;99.90;;;;;;5054707;28;20082;-59
2023/03/13 03:56:13;;;;;;;12.02;5.15;;;8.90;99.90;;;;;;5054474;28;20089;-59
2023/03/13 03:58:39;;;;;;;12.18;5.00;;;9.10;99.90;;;;;;5053201;28;20032;-59
2023/03/13 04:01:04;;;;;;;9.68;4.35;;;9.00;99.90;;;;;;5053777;28;20780;-57
2023/03/13 04:03:30;;;;;;;9.13;4.40;;;9.90;99.90;;;;;;5054667;28;20472;-59
2023/03/13 04:05:56;;;;;;;6.93;3.35;;;9.10;99.90;;;;;;5054118;28;20553;-58
2023/03/13 04:08:22;;;;;;;8.18;4.57;;;9.20;99.90;;;;;;5055053;28;20331;-59
2023/03/13 04:10:48;;;;;;;8.63;4.70;;;9.10;99.90;;;;;;5053994;28;20050;-57
2023/03/13 04:13:14;;;;;;;8.55;4.50;;;9.00;99.90;;;;;;5054554;28;20127;-58
2023/03/13 04:15:40;;;;;;;7.40;4.63;;;10.70;99.90;;;;;;5054069;28;20119;-58
2023/03/13 04:18:06;;;;;;;10.80;5.70;;;9.30;99.90;;;;;;5054513;28;20044;-58
2023/03/13 04:20:32;;;;;;;14.90;7.10;;;9.30;99.90;;;;;;5053899;28;20037;-57
2023/03/13 04:22:58;;;;;;;12.07;7.45;;;9.40;99.90;;;;;;5054096;28;22035;-58
2023/03/13 04:25:24;;;;;;;10.98;8.20;;;9.50;99.90;;;;;;5054899;28;20040;-57
2023/03/13 04:27:50;;;;;;;10.95;8.45;;;9.40;99.90;;;;;;5053674;28;20040;-58
2023/03/13 04:30:16;;;;;;;15.23;9.70;;;9.50;99.90;;;;;;5053424;28;20448;-57
2023/03/13 04:32:42;;;;;;;16.75;10.45;;;9.60;99.90;;;;;;5053523;28;20041;-57
2023/03/13 04:35:08;;;;;;;17.23;11.00;;;9.60;99.90;;;;;;5054481;28;20036;-57
2023/03/13 04:37:34;;;;;;;15.52;10.05;;;9.80;99.90;;;;;;5054743;28;20131;-58
2023/03/13 04:40:00;;;;;;;19.40;11.23;;;9.60;99.90;;;;;;5051241;28;20040;-57
2023/03/13 04:42:26;;;;;;;21.75;12.45;;;9.70;99.90;;;;;;5051471;28;20115;-58
2023/03/13 04:44:51;;;;;;;16.80;11.27;;;9.80;99.90;;;;;;5053025;28;20135;-58
2023/03/13 04:47:17;;;;;;;21.58;12.18;;;9.90;99.90;;;;;;5052963;28;20040;-58
2023/03/13 04:49:43;;;;;;;19.35;11.85;;;10.00;99.90;;;;;;5051939;28;20036;-58
2023/03/13 04:52:08;;;;;;;22.63;11.13;;;10.00;99.90;;;;;;5053056;28;20115;-58
2023/03/13 04:54:34;;;;;;;15.73;10.88;;;10.00;99.90;;;;;;5052573;28;20037;-58
2023/03/13 04:57:00;;;;;;;16.27;10.27;;;10.20;99.90;;;;;;5053667;28;20072;-59
2023/03/13 04:59:26;;;;;;;17.98;10.02;;;10.20;99.90;;;;;;5053065;28;20404;-58
2023/03/13 05:01:51;;;;;;;14.93;9.90;;;10.00;99.90;;;;;;5053970;28;20053;-59
2023/03/13 05:04:17;;;;;;;18.17;10.35;;;10.00;99.90;;;;;;5053325;28;20044;-58
2023/03/13 05:06:43;;;;;;;20.27;9.88;;;10.10;99.90;;;;;;5053191;28;20072;-57
2023/03/13 05:09:09;;;;;;;18.77;9.10;;;10.30;99.90;;;;;;5053375;28;20055;-59
2023/03/13 05:11:34;;;;;;;17.08;8.20;;;10.40;99.90;;;;;;5053032;28;20040;-58
2023/03/13 05:14:00;;;;;;;24.60;10.10;;;10.20;99.90;;;;;;5052426;28;20191;-59
2023/03/13 05:16:26;;;;;;;13.50;7.95;;;10.30;99.90;;;;;;5053462;28;20127;-58
2023/03/13 05:18:52;;;;;;;18.60;7.20;;;10.30;99.90;;;;;;5053897;28;20126;-60
2023/03/13 05:21:17;;;;;;;18.60;7.60;;;10.40;99.90;;;;;;5051650;28;20036;-58
2023/03/13 05:23:43;;;;;;;16.20;7.53;;;10.30;99.90;;;;;;5053560;28;20044;-58
2023/03/13 05:26:09;;;;;;;17.15;6.25;;;10.30;99.90;;;;;;5052676;28;20132;-58
2023/03/13 05:28:35;;;;;;;14.60;6.53;;;10.30;99.90;;;;;;5053692;28;20140;-58
2023/03/13 05:31:00;;;;;;;13.02;5.63;;;9.70;99.90;;;;;;5052919;28;20078;-58
2023/03/13 05:33:26;;;;;;;14.88;5.95;;;10.30;99.90;;;;;;5053064;28;20060;-58
2023/03/13 05:35:52;;;;;;;15.55;5.60;;;10.50;99.90;;;;;;5053034;28;20463;-59
2023/03/13 05:38:18;;;;;;;12.75;5.38;;;10.30;99.90;;;;;;5054402;28;20036;-58
2023/03/13 05:40:43;;;;;;;17.58;5.72;;;10.20;99.90;;;;;;5054824;28;20710;-58
2023/03/13 05:43:09;;;;;;;15.23;5.28;;;10.50;99.90;;;;;;5053302;28;20041;-58
2023/03/13 05:45:35;;;;;;;20.73;5.25;;;10.50;99.90;;;;;;5051813;28;20455;-58
2023/03/13 05:48:01;;;;;;;17.67;6.47;;;10.50;99.90;;;;;;5052037;28;20105;-58
2023/03/13 05:50:27;;;;;;;11.40;4.47;;;11.80;99.90;;;;;;5053387;28;20045;-59
2023/03/13 05:52:52;;;;;;;15.48;4.78;;;10.50;99.90;;;;;;5056790;28;20214;-58
2023/03/13 05:55:18;;;;;;;15.98;5.57;;;10.60;99.90;;;;;;5057158;28;20625;-57
2023/03/13 05:57:45;;;;;;;15.85;4.80;;;10.40;99.90;;;;;;5056763;28;20063;-58
2023/03/13 06:00:12;;;;;;;19.27;5.32;;;10.50;99.90;;;;;;5056617;28;20343;-58
2023/03/13 06:02:38;;;;;;;18.60;5.30;;;10.50;99.90;;;;;;5056426;28;20475;-57
2023/03/13 06:05:04;;;;;;;19.77;5.07;;;10.60;99.90;;;;;;5055041;28;20074;-57
2023/03/13 06:07:30;;;;;;;18.55;5.55;;;10.50;99.90;;;;;;5056129;28;20093;-57
2023/03/13 06:09:55;;;;;;;18.40;5.40;;;10.50;99.90;;;;;;5057191;28;20052;-57
2023/03/13 06:12:21;;;;;;;14.70;4.93;;;10.40;99.90;;;;;;5055715;28;20174;-58
2023/03/13 06:14:47;;;;;;;16.08;5.63;;;10.50;99.90;;;;;;5053948;28;20079;-58
2023/03/13 06:17:13;;;;;;;13.90;4.47;;;10.40;99.90;;;;;;5054689;28;20378;-58
2023/03/13 06:19:38;;;;;;;16.33;5.13;;;10.50;99.90;;;;;;5056028;28;20036;-58
2023/03/13 06:22:04;;;;;;;20.52;5.38;;;10.40;99.90;;;;;;5055662;28;20040;-58
2023/03/13 06:24:30;;;;;;;17.70;4.93;;;10.40;99.90;;;;;;5053778;28;20508;-58
2023/03/13 06:26:56;;;;;;;18.33;4.93;;;10.50;99.90;;;;;;5054800;28;20343;-58
2023/03/13 06:29:23;;;;;;;20.98;5.15;;;10.50;99.90;;;;;;5055970;28;20044;-58
2023/03/13 06:31:50;;;;;;;13.80;4.35;;;10.50;99.90;;;;;;5056168;28;20045;-58
2023/03/13 06:34:16;;;;;;;14.95;4.47;;;10.50;99.90;;;;;;5055321;28;20052;-59
2023/03/13 06:36:42;;;;;;;19.25;5.05;;;10.60;99.90;;;;;;5055381;28;20041;-58
2023/03/13 06:39:08;;;;;;;17.42;4.82;;;10.50;99.90;;;;;;5056396;28;20513;-58
2023/03/13 06:41:35;;;;;;;16.75;5.45;;;10.60;99.90;;;;;;5055619;28;20127;-58
2023/03/13 06:44:00;;;;;;;11.07;4.15;;;10.80;99.90;;;;;;5055173;28;20058;-58
2023/03/13 06:46:26;;;;;;;14.88;5.65;;;12.40;99.90;;;;;;5054693;28;20032;-58
2023/03/13 06:48:52;;;;;;;19.67;4.72;;;10.60;99.90;;;;;;5053603;28;20044;-58
2023/03/13 06:51:20;;;;;;;12.50;4.65;;;10.90;99.90;;;;;;5055698;28;20037;-58
2023/03/13 06:53:46;;;;;;;15.73;6.05;;;10.70;99.90;;;;;;5054884;28;20051;-57
2023/03/13 06:56:12;;;;;;;22.58;5.10;;;10.90;99.90;;;;;;5055249;28;20036;-58
2023/03/13 06:58:37;;;;;;;22.00;4.70;;;10.80;99.90;;;;;;5056231;28;20044;-57
2023/03/13 07:01:08;;;;;;;13.07;4.70;;;10.70;99.90;;;;;;5056075;28;20037;-58
2023/03/13 07:03:34;;;;;;;16.25;4.38;;;10.80;99.90;;;;;;5054880;28;20398;-58
2023/03/13 07:06:00;;;;;;;14.50;4.70;;;11.10;99.90;;;;;;5055532;28;20083;-58
2023/03/13 07:08:27;;;;;;;12.63;4.10;;;10.70;99.90;;;;;;5055833;28;20068;-58
2023/03/13 07:10:56;;;;;;;16.02;4.15;;;11.00;99.90;;;;;;5056086;28;20074;-58
2023/03/13 07:13:22;;;;;;;14.25;4.32;;;10.80;99.90;;;;;;5055181;28;20399;-57
2023/03/13 07:15:48;;;;;;;12.75;4.38;;;11.00;99.90;;;;;;5055481;28;20057;-59
2023/03/13 07:18:15;;;;;;;14.85;4.35;;;11.10;99.90;;;;;;5053639;28;20053;-58
2023/03/13 07:20:40;;;;;;;13.43;4.10;;;10.90;99.90;;;;;;5054893;28;20068;-58
2023/03/13 07:23:06;;;;;;;13.90;3.78;;;11.10;99.90;;;;;;5054097;28;20124;-59
2023/03/13 07:25:32;;;;;;;17.40;3.85;;;11.00;99.90;;;;;;5054833;28;20040;-58
2023/03/13 07:27:59;;;;;;;17.65;4.32;;;11.00;99.90;;;;;;5052506;28;20047;-59
2023/03/13 07:30:26;;;;;;;12.50;4.15;;;10.90;99.90;;;;;;5054075;28;20033;-58
2023/03/13 07:32:51;;;;;;;16.88;4.13;;;10.90;99.90;;;;;;5054399;28;20111;-58
2023/03/13 07:35:17;;;;;;;11.80;3.78;;;11.00;99.90;;;;;;5054120;28;20074;-59
2023/03/13 07:37:43;;;;;;;16.33;4.40;;;10.70;99.90;;;;;;5054751;28;20033;-59
2023/03/13 07:40:09;;;;;;;15.50;4.20;;;10.80;99.90;;;;;;5053590;28;20041;-58
2023/03/13 07:42:35;;;;;;;15.35;4.30;;;11.00;99.90;;;;;;5053771;28;20040;-58
2023/03/13 07:45:00;;;;;;;16.95;4.40;;;10.90;99.90;;;;;;5055228;28;20525;-58
2023/03/13 07:47:26;;;;;;;14.80;3.50;;;10.80;99.90;;;;;;5054032;28;20082;-58
2023/03/13 07:49:52;;;;;;;13.15;5.13;;;10.70;99.90;;;;;;5053595;28;20372;-59
2023/03/13 07:52:18;;;;;;;18.73;4.68;;;10.80;99.90;;;;;;5054338;28;20048;-58
2023/03/13 07:54:44;;;;;;;16.60;3.80;;;10.80;99.90;;;;;;5053932;28;20063;-59
2023/03/13 07:57:10;;;;;;;15.48;4.05;;;12.70;99.90;;;;;;5054437;28;20080;-58
2023/03/13 07:59:35;;;;;;;15.63;3.80;;;10.80;99.90;;;;;;5053298;28;20040;-59
2023/03/13 08:02:01;;;;;;;13.68;3.33;;;10.80;99.90;;;;;;5054122;28;20040;-58
2023/03/13 08:04:27;;;;;;;11.68;3.15;;;10.90;99.90;;;;;;5068127;28;20048;-58
2023/03/13 08:06:53;;;;;;;11.88;4.00;;;10.70;99.90;;;;;;5053624;28;20131;-58
2023/03/13 08:09:19;;;;;;;13.13;3.22;;;10.90;99.90;;;;;;5053815;28;20064;-58
2023/03/13 08:11:45;;;;;;;14.05;3.20;;;10.80;99.90;;;;;;5053343;28;20521;-58
2023/03/13 08:14:11;;;;;;;14.95;3.22;;;10.80;99.90;;;;;;5052765;28;20127;-58
2023/03/13 08:16:37;;;;;;;15.35;3.30;;;11.50;99.90;;;;;;5054504;28;20577;-58
2023/03/13 08:19:04;;;;;;;9.90;2.58;;;11.90;99.90;;;;;;5051727;28;20062;-59
2023/03/13 08:21:33;;;;;;;13.90;3.30;;;11.20;99.90;;;;;;5053966;28;20570;-59
2023/03/13 08:24:02;;;;;;;9.55;2.58;;;11.00;99.90;;;;;;5053798;28;20040;-58
2023/03/13 08:26:29;;;;;;;11.48;3.40;;;11.40;99.90;;;;;;5053630;28;20080;-59
2023/03/13 08:29:00;;;;;;;12.75;2.75;;;11.50;99.90;;;;;;5053935;28;21151;-59
2023/03/13 08:31:32;;;;;;;13.00;2.92;;;11.40;99.90;;;;;;5053917;28;20133;-58
2023/03/13 08:33:58;;;;;;;10.13;2.42;;;12.00;99.90;;;;;;5054571;28;20049;-60
2023/03/13 08:36:32;;;;;;;10.40;2.50;;;12.00;99.90;;;;;;5053525;28;20041;-58
2023/03/13 08:39:04;;;;;;;10.90;2.65;;;12.20;99.90;;;;;;5055444;28;20509;-58
2023/03/13 08:41:34;;;;;;;11.27;2.47;;;12.70;99.90;;;;;;5053923;28;20075;-60
2023/03/13 08:44:01;;;;;;;7.45;2.03;;;13.20;99.90;;;;;;5054172;28;20052;-59
2023/03/13 08:46:32;;;;;;;7.93;1.70;;;13.70;99.90;;;;;;5054106;28;20048;-58
2023/03/13 08:48:58;;;;;;;9.25;2.05;;;13.90;99.90;;;;;;5053984;28;20048;-58
2023/03/13 08:51:26;;;;;;;6.20;2.08;;;13.50;99.90;;;;;;5053298;28;20102;-58
2023/03/13 08:53:54;;;;;;;6.88;1.48;;;13.30;99.90;;;;;;5052539;28;20856;-59
2023/03/13 08:56:23;;;;;;;7.10;1.77;;;13.10;99.90;;;;;;5051975;28;20055;-58
2023/03/13 08:58:56;;;;;;;5.50;1.60;;;13.00;99.90;;;;;;5052714;28;20596;-58
2023/03/13 09:01:24;;;;;;;7.60;1.83;;;13.10;99.90;;;;;;5053101;28;20197;-58
2023/03/13 09:03:51;;;;;;;6.25;2.10;;;13.20;99.90;;;;;;5051745;28;20084;-58
2023/03/13 09:06:17;;;;;;;7.78;1.88;;;13.20;99.90;;;;;;5053140;28;20129;-59
2023/03/13 09:08:43;;;;;;;7.43;1.70;;;12.90;99.90;;;;;;5054294;28;20505;-59
2023/03/13 09:11:14;;;;;;;10.57;2.80;;;12.70;99.90;;;;;;5053366;28;20045;-58
2023/03/13 09:13:43;;;;;;;7.32;2.28;;;12.30;99.90;;;;;;5051573;28;20048;-58
2023/03/13 09:16:14;;;;;;;13.40;1.95;;;12.40;99.90;;;;;;5052489;28;20036;-57
2023/03/13 09:18:40;;;;;;;10.43;1.90;;;12.40;99.90;;;;;;5052234;28;20295;-57
2023/03/13 09:21:10;;;;;;;9.68;2.40;;;12.50;99.90;;;;;;5051081;28;20294;-58
2023/03/13 09:23:36;;;;;;;14.60;2.72;;;12.40;99.90;;;;;;5051814;28;20044;-57
2023/03/13 09:26:02;;;;;;;14.02;2.17;;;12.40;99.90;;;;;;5055310;28;20040;-58
2023/03/13 09:28:28;;;;;;;14.75;2.58;;;12.20;99.90;;;;;;5055508;28;20047;-59
2023/03/13 09:30:54;;;;;;;11.65;2.33;;;12.20;99.90;;;;;;5055838;28;20037;-58
2023/03/13 09:33:24;;;;;;;15.10;2.58;;;12.00;99.90;;;;;;5056376;28;20040;-58
2023/03/13 09:35:50;;;;;;;14.52;2.70;;;12.00;99.90;;;;;;5055618;28;20055;-57
2023/03/13 09:38:17;;;;;;;13.85;3.25;;;12.10;99.90;;;;;;5056695;28;20234;-58
2023/03/13 09:40:45;;;;;;;18.20;3.58;;;11.80;99.90;;;;;;5057453;28;20044;-58
2023/03/13 09:43:36;;;;;;;13.73;2.72;;;12.00;99.90;;;;;;5055705;28;20462;-57
2023/03/13 09:46:07;;;;;;;13.18;3.28;;;12.20;99.90;;;;;;5055393;28;20040;-58
2023/03/13 09:48:40;;;;;;;16.30;3.03;;;12.30;99.90;;;;;;5055361;28;20552;-58
2023/03/13 09:51:23;;;;;;;17.05;2.90;;;12.10;99.90;;;;;;5055089;28;20513;-58
2023/03/13 09:54:08;;;;;;;13.85;2.70;;;12.30;99.90;;;;;;5056350;28;20153;-57
2023/03/13 09:56:43;;;;;;;13.07;2.58;;;12.40;99.90;;;;;;5056764;28;20043;-58
2023/03/13 09:59:29;;;;;;;17.08;2.70;;;12.70;99.90;;;;;;5056979;28;20159;-58
2023/03/13 10:01:57;;;;;;;9.23;2.42;;;13.00;99.90;;;;;;5054818;28;20040;-58
2023/03/13 10:04:34;;;;;;;15.75;3.15;;;13.30;99.90;;;;;;5054375;28;20096;-58
2023/03/13 10:07:02;;;;;;;14.52;2.80;;;13.60;99.90;;;;;;5055464;28;20055;-58
2023/03/13 10:09:30;;;;;;;17.00;3.05;;;13.60;99.90;;;;;;5058203;28;20320;-59
2023/03/13 10:12:20;;;;;;;13.10;2.67;;;13.60;99.90;;;;;;5056386;28;20092;-58
2023/03/13 10:15:19;;;;;;;19.60;3.67;;;13.70;99.90;;;;;;5055835;28;20131;-58
2023/03/13 10:17:45;;;;;;;19.17;4.10;;;14.00;99.90;;;;;;5057532;28;20194;-58
2023/03/13 10:20:22;;;;;;;14.75;2.85;;;13.80;99.90;;;;;;5055947;28;20045;-59
2023/03/13 10:22:58;;;;;;;14.85;3.28;;;14.10;99.90;;;;;;5057574;28;20078;-58
2023/03/13 10:25:38;;;;;;;14.15;3.65;;;14.20;99.90;;;;;;5055884;28;20078;-57
2023/03/13 10:28:05;;;;;;;23.25;4.50;;;14.00;99.90;;;;;;5056424;28;20052;-58
2023/03/13 10:30:37;;;;;;;19.42;3.20;;;14.20;99.90;;;;;;5055879;28;20166;-57
2023/03/13 10:33:05;;;;;;;;;;;14.20;99.90;;;;;;5055715;28;20041;-58
2023/03/13 10:35:36;;;;;;;16.48;3.60;;;14.10;99.90;;;;;;5056277;28;19924;-58
2023/03/13 10:38:17;;;;;;;21.88;3.42;;;14.40;99.90;;;;;;5054918;28;20048;-57
2023/03/13 10:40:55;;;;;;;22.83;4.07;;;14.20;99.90;;;;;;5055265;28;20135;-57
2023/03/13 10:43:21;;;;;;;18.02;4.18;;;14.30;99.90;;;;;;5054864;28;20462;-57
2023/03/13 10:45:46;;;;;;;17.70;3.35;;;14.10;99.90;;;;;;5055816;28;20087;-57
2023/03/13 10:48:19;;;;;;;19.75;3.70;;;14.20;99.90;;;;;;5055071;28;20072;-56
2023/03/13 10:50:48;;;;;;;18.90;3.47;;;14.20;99.90;;;;;;5055396;28;20040;-57
2023/03/13 10:53:20;;;;;;;20.00;3.78;;;14.40;99.90;;;;;;5055373;28;20156;-57
2023/03/13 10:55:46;;;;;;;21.88;3.85;;;14.40;99.90;;;;;;5053006;28;20727;-57
2023/03/13 10:58:34;;;;;;;16.00;3.45;;;14.40;99.90;;;;;;5053715;28;20594;-57
2023/03/13 11:01:20;;;;;;;20.63;3.30;;;14.00;99.90;;;;;;5053959;28;20044;-57
2023/03/13 11:03:47;;;;;;;17.98;3.60;;;14.40;99.90;;;;;;5054368;28;20070;-56
2023/03/13 11:06:22;;;;;;;17.08;3.60;;;14.20;99.90;;;;;;5053967;28;20045;-57
2023/03/13 11:08:48;;;;;;;18.67;3.92;;;14.20;99.90;;;;;;5054948;28;20085;-57
2023/03/13 11:11:19;;;;;;;22.30;3.67;;;14.10;99.90;;;;;;5054447;28;20044;-57
2023/03/13 11:13:45;;;;;;;14.57;3.95;;;16.00;99.90;;;;;;5053758;28;20045;-56
2023/03/13 11:16:23;;;;;;;21.38;3.20;;;14.10;99.90;;;;;;5054523;28;20052;-57
2023/03/13 11:19:08;;;;;;;14.25;3.58;;;14.20;99.90;;;;;;5041650;28;20505;-57
2023/03/13 11:22:06;;;;;;;13.00;3.03;;;13.90;99.90;;;;;;5054782;28;20123;-57
2023/03/13 11:24:40;;;;;;;18.45;3.35;;;13.80;99.90;;;;;;5025673;28;20704;-57
2023/03/13 11:27:28;;;;;;;12.38;2.60;;;14.00;99.90;;;;;;5054165;28;20046;-56
2023/03/13 11:30:16;;;;;;;14.90;2.85;;;14.20;99.90;;;;;;5055319;28;20112;-57
2023/03/13 11:32:53;;;;;;;15.45;3.00;;;14.20;99.90;;;;;;5054618;28;20056;-57
2023/03/13 11:35:52;;;;;;;11.90;2.28;;;14.10;99.90;;;;;;5055112;28;20036;-57
2023/03/13 11:38:27;;;;;;;13.05;2.58;;;14.60;99.90;;;;;;5053945;28;20567;-57
2023/03/13 11:41:08;;;;;;;14.15;3.10;;;14.60;99.90;;;;;;5054927;28;20102;-56
2023/03/13 11:43:44;;;;;;;12.05;2.72;;;14.50;99.90;;;;;;5054651;28;20044;-57
2023/03/13 11:46:30;;;;;;;11.27;2.55;;;14.30;99.90;;;;;;5052394;28;20048;-57
2023/03/13 11:49:13;;;;;;;12.57;2.42;;;14.40;99.90;;;;;;5054515;28;20131;-57
2023/03/13 11:52:00;;;;;;;11.27;3.03;;;14.10;99.90;;;;;;5054960;28;20516;-57
2023/03/13 11:54:59;;;;;;;9.65;2.33;;;14.10;99.90;;;;;;5053409;28;20048;-56
2023/03/13 11:57:38;;;;;;;17.52;3.17;;;14.10;99.90;;;;;;5054750;28;20107;-57
2023/03/13 12:00:15;;;;;;;14.60;3.05;;;14.40;99.90;;;;;;5054731;28;20037;-56
2023/03/13 12:03:10;;;;;;;15.80;3.33;;;14.40;99.90;;;;;;5054994;28;20052;-57
2023/03/13 12:05:53;;;;;;;11.38;2.47;;;14.30;99.90;;;;;;5053687;28;20043;-56
2023/03/13 12:08:53;;;;;;;20.10;2.83;;;14.60;99.90;;;;;;5054262;28;20052;-57
2023/03/13 12:11:27;;;;;;;27.35;4.53;;;14.60;99.90;;;;;;5050142;28;20048;-57
2023/03/13 12:13:57;;;;;;;23.58;3.70;;;14.70;99.90;;;;;;5052995;28;20048;-57
2023/03/13 12:16:33;;;;;;;16.35;3.28;;;14.80;99.90;;;;;;5052770;28;20123;-57
2023/03/13 12:18:59;;;;;;;16.70;3.50;;;14.60;99.90;;;;;;5053673;28;20610;-57
2023/03/13 12:21:38;;;;;;;20.75;4.78;;;14.80;99.90;;;;;;5053439;28;20043;-57
2023/03/13 12:24:19;;;;;;;19.05;3.50;;;14.90;99.90;;;;;;5053003;28;20040;-55
2023/03/13 12:26:54;;;;;;;14.43;3.03;;;14.90;99.90;;;;;;5052808;28;20053;-57
2023/03/13 12:29:42;;;;;;;16.88;4.03;;;14.80;99.90;;;;;;5054348;28;20475;-57
2023/03/13 12:32:13;;;;;;;17.00;3.60;;;14.70;99.90;;;;;;5053042;28;20048;-57
2023/03/13 12:34:45;;;;;;;19.50;3.50;;;14.70;99.90;;;;;;5052701;28;20048;-57
2023/03/13 12:37:39;;;;;;;20.23;3.75;;;14.60;99.90;;;;;;5053811;28;20056;-57
2023/03/13 12:40:17;;;;;;;16.30;3.15;;;14.90;99.90;;;;;;5054485;28;21140;-57
2023/03/13 12:43:34;;;;;;;20.15;4.03;;;14.60;99.90;;;;;;5052894;28;20151;-57
2023/03/13 12:46:00;;;;;;;18.98;3.97;;;15.00;99.90;;;;;;5031698;28;20050;-57
2023/03/13 12:48:47;;;;;;;24.05;4.15;;;14.80;99.90;;;;;;5052110;28;20074;-57
2023/03/13 12:51:45;;;;;;;18.98;3.40;;;14.60;99.90;;;;;;5052475;28;20037;-57
2023/03/13 12:54:28;;;;;;;20.17;4.10;;;14.50;99.90;;;;;;5022321;28;20053;-56